Haddenham, United Kingdom
Current Conditions -  °F | °C
As of 12:50 PM on Tuesday 27 Jan 2015 (Local Time) from EGUB Reporting Station
Broken Clouds Broken Clouds  
Wind Chill:   Ceiling: 7000
Heat Index:   Visibility: 6mi
Dew Point:   Wind: 7mph
Humidity: 76%   Direction: 260°W
Pressure: 30.33"   Gusts: NA
Location:  51.77°N, 0.93°W
Report Text: EGUB 271250Z 26006KT 9999 FEW020 BKN070 08/04 Q1027 BLU TEMPO SCT020 WHT
Loading
Personal Weather Stations






























Interactive Weather Map New forecast layout! Learn more

10-Day Weather Forecast

Advertisements
Track Severe Weather on mobile